Terminal Aerodrome Forecast
Issued by NWS

Home | Current Version | Previous Version | Text Only | Print | Product List | Glossary On
Versions: 1 2 3 4 5 6 7 8 9 10 11 12 13 14 15 16 17 18
000
FTUS43 KIND 281700
TAFBMG
TAF
KBMG 281722Z 2818/2918 02005KT P6SM SKC
     FM290000 00000KT P6SM SKC
     FM290600 14003KT P6SM BKN250
     FM291500 19015G22KT P6SM BKN150=

USA.gov is the U.S. government's official web portal to all federal, state and local government web resources and services.